Terminal Aerodrome Forecast
Issued by NWS

Home | Current Version | Previous Version | Text Only | Print | Product List | Glossary On
Versions: 1 2 3 4 5 6 7 8 9 10 11 12 13 14 15 16 17 18 19 20
000
FTUS43 KLSX 292300
TAFCPS
TAF
KCPS 292323Z 3000/3024 21009KT P6SM VCTS BKN040CB OVC080
      TEMPO 3000/3001 5SM -TSRA
     FM300200 18006KT P6SM BKN060
      TEMPO 3009/3012 5SM BR
     FM301700 20009KT P6SM VCTS SCT040CB BKN120=

USA.gov is the U.S. government's official web portal to all federal, state and local government web resources and services.